sensor_id;sensor_type;location;lat;lon;timestamp;P1;durP1;ratioP1;P2;durP2;ratioP2
52962;SDS011;38827;53.024;6.596;2024-03-08T00:00:32;41.35;;;23.48;;
52962;SDS011;38827;53.024;6.596;2024-03-08T00:02:57;46.63;;;25.50;;
52962;SDS011;38827;53.024;6.596;2024-03-08T00:05:23;43.55;;;24.65;;
52962;SDS011;38827;53.024;6.596;2024-03-08T00:07:49;46.15;;;26.30;;
52962;SDS011;38827;53.024;6.596;2024-03-08T00:10:15;41.28;;;23.95;;
52962;SDS011;38827;53.024;6.596;2024-03-08T00:12:42;42.35;;;24.65;;
52962;SDS011;38827;53.024;6.596;2024-03-08T00:15:16;41.90;;;25.02;;
52962;SDS011;38827;53.024;6.596;2024-03-08T00:17:42;47.38;;;25.77;;
52962;SDS011;38827;53.024;6.596;2024-03-08T00:22:38;44.25;;;24.85;;
52962;SDS011;38827;53.024;6.596;2024-03-08T00:25:04;47.47;;;24.98;;
52962;SDS011;38827;53.024;6.596;2024-03-08T00:27:33;49.40;;;25.38;;
52962;SDS011;38827;53.024;6.596;2024-03-08T00:29:59;42.65;;;25.02;;
52962;SDS011;38827;53.024;6.596;2024-03-08T00:32:32;43.63;;;24.85;;
52962;SDS011;38827;53.024;6.596;2024-03-08T00:35:01;47.83;;;26.65;;
52962;SDS011;38827;53.024;6.596;2024-03-08T00:37:30;46.45;;;25.08;;
52962;SDS011;38827;53.024;6.596;2024-03-08T00:42:59;45.80;;;25.30;;
52962;SDS011;38827;53.024;6.596;2024-03-08T00:45:47;47.90;;;26.27;;
52962;SDS011;38827;53.024;6.596;2024-03-08T00:48:15;47.97;;;25.85;;
52962;SDS011;38827;53.024;6.596;2024-03-08T00:50:50;51.75;;;26.88;;
52962;SDS011;38827;53.024;6.596;2024-03-08T00:53:16;45.03;;;25.75;;
52962;SDS011;38827;53.024;6.596;2024-03-08T00:56:10;46.03;;;25.85;;
52962;SDS011;38827;53.024;6.596;2024-03-08T00:58:44;53.22;;;27.13;;
52962;SDS011;38827;53.024;6.596;2024-03-08T01:01:19;50.13;;;27.67;;
52962;SDS011;38827;53.024;6.596;2024-03-08T01:04:06;48.20;;;26.38;;
52962;SDS011;38827;53.024;6.596;2024-03-08T01:06:46;49.83;;;26.85;;
52962;SDS011;38827;53.024;6.596;2024-03-08T01:09:27;47.83;;;27.02;;
52962;SDS011;38827;53.024;6.596;2024-03-08T01:12:05;50.05;;;27.05;;
52962;SDS011;38827;53.024;6.596;2024-03-08T01:14:50;49.63;;;27.08;;
52962;SDS011;38827;53.024;6.596;2024-03-08T01:17:16;47.22;;;26.48;;
52962;SDS011;38827;53.024;6.596;2024-03-08T01:19:42;46.78;;;27.88;;
52962;SDS011;38827;53.024;6.596;2024-03-08T01:22:39;49.38;;;28.02;;
52962;SDS011;38827;53.024;6.596;2024-03-08T01:25:06;47.88;;;26.75;;
52962;SDS011;38827;53.024;6.596;2024-03-08T01:27:48;51.97;;;27.95;;
52962;SDS011;38827;53.024;6.596;2024-03-08T01:34:01;54.13;;;28.88;;
52962;SDS011;38827;53.024;6.596;2024-03-08T01:39:40;49.85;;;27.85;;
52962;SDS011;38827;53.024;6.596;2024-03-08T01:45:08;52.17;;;27.45;;
52962;SDS011;38827;53.024;6.596;2024-03-08T01:47:45;48.42;;;27.80;;
52962;SDS011;38827;53.024;6.596;2024-03-08T01:50:31;51.67;;;28.95;;
52962;SDS011;38827;53.024;6.596;2024-03-08T01:56:02;50.70;;;27.70;;
52962;SDS011;38827;53.024;6.596;2024-03-08T01:58:31;56.42;;;29.02;;
52962;SDS011;38827;53.024;6.596;2024-03-08T02:01:04;54.67;;;28.35;;
52962;SDS011;38827;53.024;6.596;2024-03-08T02:03:30;53.25;;;28.15;;
52962;SDS011;38827;53.024;6.596;2024-03-08T02:05:56;52.97;;;28.55;;
52962;SDS011;38827;53.024;6.596;2024-03-08T02:08:36;56.67;;;27.90;;
52962;SDS011;38827;53.024;6.596;2024-03-08T02:11:18;50.70;;;27.40;;
52962;SDS011;38827;53.024;6.596;2024-03-08T02:14:16;59.20;;;27.67;;
52962;SDS011;38827;53.024;6.596;2024-03-08T02:17:01;50.03;;;27.95;;
52962;SDS011;38827;53.024;6.596;2024-03-08T02:19:30;54.90;;;27.67;;
52962;SDS011;38827;53.024;6.596;2024-03-08T02:22:15;52.92;;;28.98;;
52962;SDS011;38827;53.024;6.596;2024-03-08T02:24:41;54.53;;;28.60;;
52962;SDS011;38827;53.024;6.596;2024-03-08T02:27:23;56.28;;;28.92;;
52962;SDS011;38827;53.024;6.596;2024-03-08T02:30:33;51.03;;;27.92;;
52962;SDS011;38827;53.024;6.596;2024-03-08T02:33:15;50.63;;;27.70;;
52962;SDS011;38827;53.024;6.596;2024-03-08T02:35:57;54.42;;;28.77;;
52962;SDS011;38827;53.024;6.596;2024-03-08T02:38:27;56.72;;;28.50;;
52962;SDS011;38827;53.024;6.596;2024-03-08T02:41:17;53.30;;;28.25;;
52962;SDS011;38827;53.024;6.596;2024-03-08T02:43:42;50.03;;;27.90;;
52962;SDS011;38827;53.024;6.596;2024-03-08T02:46:10;51.85;;;28.23;;
52962;SDS011;38827;53.024;6.596;2024-03-08T02:48:36;53.08;;;28.23;;
52962;SDS011;38827;53.024;6.596;2024-03-08T02:51:02;53.60;;;28.48;;
52962;SDS011;38827;53.024;6.596;2024-03-08T02:53:28;51.78;;;28.17;;
52962;SDS011;38827;53.024;6.596;2024-03-08T02:56:00;50.15;;;27.90;;
52962;SDS011;38827;53.024;6.596;2024-03-08T02:58:28;50.40;;;27.73;;
52962;SDS011;38827;53.024;6.596;2024-03-08T03:01:06;50.30;;;28.05;;
52962;SDS011;38827;53.024;6.596;2024-03-08T03:03:32;51.28;;;28.15;;
52962;SDS011;38827;53.024;6.596;2024-03-08T03:05:58;48.28;;;27.40;;
52962;SDS011;38827;53.024;6.596;2024-03-08T03:08:29;50.15;;;27.15;;
52962;SDS011;38827;53.024;6.596;2024-03-08T03:10:55;55.15;;;28.60;;
52962;SDS011;38827;53.024;6.596;2024-03-08T03:13:27;46.50;;;26.55;;
52962;SDS011;38827;53.024;6.596;2024-03-08T03:16:06;49.70;;;27.63;;
52962;SDS011;38827;53.024;6.596;2024-03-08T03:18:32;52.67;;;27.60;;
52962;SDS011;38827;53.024;6.596;2024-03-08T03:21:13;51.60;;;27.80;;
52962;SDS011;38827;53.024;6.596;2024-03-08T03:23:49;50.47;;;27.77;;
52962;SDS011;38827;53.024;6.596;2024-03-08T03:26:27;46.58;;;26.92;;
52962;SDS011;38827;53.024;6.596;2024-03-08T03:28:52;50.97;;;27.52;;
52962;SDS011;38827;53.024;6.596;2024-03-08T03:31:18;50.83;;;27.70;;
52962;SDS011;38827;53.024;6.596;2024-03-08T03:36:32;51.33;;;26.05;;
52962;SDS011;38827;53.024;6.596;2024-03-08T03:39:15;52.05;;;26.65;;
52962;SDS011;38827;53.024;6.596;2024-03-08T03:41:47;48.72;;;26.85;;
52962;SDS011;38827;53.024;6.596;2024-03-08T03:44:34;47.83;;;26.70;;
52962;SDS011;38827;53.024;6.596;2024-03-08T03:49:31;50.77;;;27.37;;
52962;SDS011;38827;53.024;6.596;2024-03-08T03:51:58;48.53;;;25.25;;
52962;SDS011;38827;53.024;6.596;2024-03-08T03:54:42;47.35;;;27.80;;
52962;SDS011;38827;53.024;6.596;2024-03-08T03:57:08;51.90;;;27.27;;
52962;SDS011;38827;53.024;6.596;2024-03-08T03:59:34;48.05;;;25.95;;
52962;SDS011;38827;53.024;6.596;2024-03-08T04:02:00;45.73;;;25.37;;
52962;SDS011;38827;53.024;6.596;2024-03-08T04:04:26;48.33;;;26.80;;
52962;SDS011;38827;53.024;6.596;2024-03-08T04:06:57;47.93;;;27.00;;
52962;SDS011;38827;53.024;6.596;2024-03-08T04:09:32;48.10;;;25.67;;
52962;SDS011;38827;53.024;6.596;2024-03-08T04:12:03;44.97;;;24.73;;
52962;SDS011;38827;53.024;6.596;2024-03-08T04:21:13;47.47;;;26.33;;
52962;SDS011;38827;53.024;6.596;2024-03-08T04:23:47;45.40;;;26.13;;
52962;SDS011;38827;53.024;6.596;2024-03-08T04:26:19;46.38;;;25.52;;
52962;SDS011;38827;53.024;6.596;2024-03-08T04:28:55;48.50;;;26.02;;
52962;SDS011;38827;53.024;6.596;2024-03-08T04:31:30;49.13;;;27.15;;
52962;SDS011;38827;53.024;6.596;2024-03-08T04:33:59;48.30;;;26.27;;
52962;SDS011;38827;53.024;6.596;2024-03-08T04:36:24;45.28;;;25.25;;
52962;SDS011;38827;53.024;6.596;2024-03-08T04:38:50;48.05;;;26.30;;
52962;SDS011;38827;53.024;6.596;2024-03-08T04:41:49;47.08;;;25.13;;
52962;SDS011;38827;53.024;6.596;2024-03-08T04:44:16;44.95;;;24.52;;
52962;SDS011;38827;53.024;6.596;2024-03-08T04:46:54;48.13;;;26.25;;
52962;SDS011;38827;53.024;6.596;2024-03-08T04:49:29;46.35;;;25.40;;
52962;SDS011;38827;53.024;6.596;2024-03-08T04:51:55;50.63;;;26.02;;
52962;SDS011;38827;53.024;6.596;2024-03-08T04:57:32;49.40;;;26.73;;
52962;SDS011;38827;53.024;6.596;2024-03-08T04:59:58;48.22;;;25.63;;
52962;SDS011;38827;53.024;6.596;2024-03-08T05:02:54;49.03;;;26.30;;
52962;SDS011;38827;53.024;6.596;2024-03-08T05:05:27;45.08;;;24.73;;
52962;SDS011;38827;53.024;6.596;2024-03-08T05:07:54;46.42;;;25.65;;
52962;SDS011;38827;53.024;6.596;2024-03-08T05:10:37;45.40;;;24.00;;
52962;SDS011;38827;53.024;6.596;2024-03-08T05:13:06;43.03;;;24.92;;
52962;SDS011;38827;53.024;6.596;2024-03-08T05:15:41;50.25;;;25.48;;
52962;SDS011;38827;53.024;6.596;2024-03-08T05:18:10;48.47;;;25.52;;
52962;SDS011;38827;53.024;6.596;2024-03-08T05:24:08;43.92;;;23.80;;
52962;SDS011;38827;53.024;6.596;2024-03-08T05:29:44;44.72;;;24.33;;
52962;SDS011;38827;53.024;6.596;2024-03-08T05:32:11;47.53;;;25.40;;
52962;SDS011;38827;53.024;6.596;2024-03-08T05:38:09;44.00;;;24.42;;
52962;SDS011;38827;53.024;6.596;2024-03-08T05:40:40;43.03;;;25.73;;
52962;SDS011;38827;53.024;6.596;2024-03-08T05:43:13;45.58;;;24.92;;
52962;SDS011;38827;53.024;6.596;2024-03-08T05:45:42;52.20;;;24.85;;
52962;SDS011;38827;53.024;6.596;2024-03-08T05:48:08;46.47;;;24.45;;
52962;SDS011;38827;53.024;6.596;2024-03-08T05:50:37;42.42;;;24.27;;
52962;SDS011;38827;53.024;6.596;2024-03-08T05:53:03;49.72;;;26.08;;
52962;SDS011;38827;53.024;6.596;2024-03-08T05:55:48;58.55;;;26.20;;
52962;SDS011;38827;53.024;6.596;2024-03-08T05:58:17;44.55;;;24.02;;
52962;SDS011;38827;53.024;6.596;2024-03-08T06:00:43;46.17;;;25.17;;
52962;SDS011;38827;53.024;6.596;2024-03-08T06:09:47;43.92;;;24.00;;
52962;SDS011;38827;53.024;6.596;2024-03-08T06:15:23;41.45;;;23.38;;
52962;SDS011;38827;53.024;6.596;2024-03-08T06:17:48;46.83;;;24.52;;
52962;SDS011;38827;53.024;6.596;2024-03-08T06:20:18;47.92;;;24.90;;
52962;SDS011;38827;53.024;6.596;2024-03-08T06:22:44;41.28;;;23.58;;
52962;SDS011;38827;53.024;6.596;2024-03-08T06:25:13;43.87;;;25.03;;
52962;SDS011;38827;53.024;6.596;2024-03-08T06:27:40;44.10;;;25.23;;
52962;SDS011;38827;53.024;6.596;2024-03-08T06:30:07;45.17;;;24.08;;
52962;SDS011;38827;53.024;6.596;2024-03-08T06:32:37;44.08;;;23.55;;
52962;SDS011;38827;53.024;6.596;2024-03-08T06:35:06;41.63;;;24.40;;
52962;SDS011;38827;53.024;6.596;2024-03-08T06:37:41;43.72;;;24.75;;
52962;SDS011;38827;53.024;6.596;2024-03-08T06:40:12;39.10;;;23.25;;
52962;SDS011;38827;53.024;6.596;2024-03-08T06:42:52;41.72;;;23.40;;
52962;SDS011;38827;53.024;6.596;2024-03-08T06:45:18;39.40;;;23.08;;
52962;SDS011;38827;53.024;6.596;2024-03-08T06:48:07;41.50;;;23.48;;
52962;SDS011;38827;53.024;6.596;2024-03-08T06:50:46;41.47;;;23.58;;
52962;SDS011;38827;53.024;6.596;2024-03-08T06:53:27;41.22;;;23.67;;
52962;SDS011;38827;53.024;6.596;2024-03-08T06:56:02;40.42;;;22.63;;
52962;SDS011;38827;53.024;6.596;2024-03-08T07:01:31;37.08;;;22.05;;
52962;SDS011;38827;53.024;6.596;2024-03-08T07:04:09;38.10;;;21.65;;
52962;SDS011;38827;53.024;6.596;2024-03-08T07:06:39;38.22;;;22.08;;
52962;SDS011;38827;53.024;6.596;2024-03-08T07:09:09;35.13;;;20.73;;
52962;SDS011;38827;53.024;6.596;2024-03-08T07:11:35;34.95;;;20.55;;
52962;SDS011;38827;53.024;6.596;2024-03-08T07:14:01;35.63;;;21.10;;
52962;SDS011;38827;53.024;6.596;2024-03-08T07:19:39;33.67;;;20.33;;
52962;SDS011;38827;53.024;6.596;2024-03-08T07:22:05;35.83;;;20.88;;
52962;SDS011;38827;53.024;6.596;2024-03-08T07:24:41;35.28;;;20.83;;
52962;SDS011;38827;53.024;6.596;2024-03-08T07:27:25;32.92;;;20.83;;
52962;SDS011;38827;53.024;6.596;2024-03-08T07:29:51;34.70;;;20.13;;
52962;SDS011;38827;53.024;6.596;2024-03-08T07:32:17;36.15;;;19.75;;
52962;SDS011;38827;53.024;6.596;2024-03-08T07:34:50;32.72;;;19.45;;
52962;SDS011;38827;53.024;6.596;2024-03-08T07:37:19;31.73;;;20.00;;
52962;SDS011;38827;53.024;6.596;2024-03-08T07:39:45;31.55;;;19.20;;
52962;SDS011;38827;53.024;6.596;2024-03-08T07:42:11;32.28;;;19.33;;
52962;SDS011;38827;53.024;6.596;2024-03-08T07:44:37;28.67;;;18.67;;
52962;SDS011;38827;53.024;6.596;2024-03-08T07:47:03;30.77;;;19.67;;
52962;SDS011;38827;53.024;6.596;2024-03-08T07:49:30;29.50;;;19.05;;
52962;SDS011;38827;53.024;6.596;2024-03-08T07:51:56;29.45;;;19.17;;
52962;SDS011;38827;53.024;6.596;2024-03-08T07:54:23;30.92;;;19.67;;
52962;SDS011;38827;53.024;6.596;2024-03-08T07:56:48;29.10;;;19.25;;
52962;SDS011;38827;53.024;6.596;2024-03-08T07:59:16;29.80;;;20.05;;
52962;SDS011;38827;53.024;6.596;2024-03-08T08:01:41;28.92;;;18.75;;
52962;SDS011;38827;53.024;6.596;2024-03-08T08:07:02;30.95;;;19.38;;
52962;SDS011;38827;53.024;6.596;2024-03-08T08:09:42;27.48;;;18.55;;
52962;SDS011;38827;53.024;6.596;2024-03-08T08:12:08;31.45;;;18.35;;
52962;SDS011;38827;53.024;6.596;2024-03-08T08:14:46;29.08;;;19.35;;
52962;SDS011;38827;53.024;6.596;2024-03-08T08:17:15;33.35;;;22.40;;
52962;SDS011;38827;53.024;6.596;2024-03-08T08:19:50;27.50;;;19.15;;
52962;SDS011;38827;53.024;6.596;2024-03-08T08:22:21;25.42;;;18.20;;
52962;SDS011;38827;53.024;6.596;2024-03-08T08:24:56;25.80;;;18.45;;
52962;SDS011;38827;53.024;6.596;2024-03-08T08:27:22;24.33;;;17.65;;
52962;SDS011;38827;53.024;6.596;2024-03-08T08:30:03;29.17;;;21.35;;
52962;SDS011;38827;53.024;6.596;2024-03-08T08:35:37;25.90;;;18.80;;
52962;SDS011;38827;53.024;6.596;2024-03-08T08:38:15;30.25;;;20.65;;
52962;SDS011;38827;53.024;6.596;2024-03-08T08:40:40;28.65;;;20.08;;
52962;SDS011;38827;53.024;6.596;2024-03-08T08:43:06;26.10;;;19.52;;
52962;SDS011;38827;53.024;6.596;2024-03-08T08:45:32;27.15;;;18.95;;
52962;SDS011;38827;53.024;6.596;2024-03-08T08:47:58;25.30;;;19.38;;
52962;SDS011;38827;53.024;6.596;2024-03-08T08:50:27;29.50;;;21.20;;
52962;SDS011;38827;53.024;6.596;2024-03-08T08:52:56;24.95;;;19.17;;
52962;SDS011;38827;53.024;6.596;2024-03-08T08:55:22;25.10;;;18.70;;
52962;SDS011;38827;53.024;6.596;2024-03-08T08:57:51;24.50;;;18.98;;
52962;SDS011;38827;53.024;6.596;2024-03-08T09:00:23;24.38;;;19.27;;
52962;SDS011;38827;53.024;6.596;2024-03-08T09:03:17;28.42;;;19.30;;
52962;SDS011;38827;53.024;6.596;2024-03-08T09:05:43;24.13;;;18.65;;
52962;SDS011;38827;53.024;6.596;2024-03-08T09:08:09;24.20;;;18.48;;
52962;SDS011;38827;53.024;6.596;2024-03-08T09:10:34;24.58;;;18.48;;
52962;SDS011;38827;53.024;6.596;2024-03-08T09:13:00;20.40;;;16.92;;
52962;SDS011;38827;53.024;6.596;2024-03-08T09:15:29;23.98;;;17.90;;
52962;SDS011;38827;53.024;6.596;2024-03-08T09:17:55;21.40;;;17.73;;
52962;SDS011;38827;53.024;6.596;2024-03-08T09:20:21;24.30;;;17.93;;
52962;SDS011;38827;53.024;6.596;2024-03-08T09:22:48;21.13;;;17.57;;
52962;SDS011;38827;53.024;6.596;2024-03-08T09:27:40;20.97;;;16.20;;
52962;SDS011;38827;53.024;6.596;2024-03-08T09:30:21;22.90;;;17.50;;
52962;SDS011;38827;53.024;6.596;2024-03-08T09:35:38;24.20;;;18.33;;
52962;SDS011;38827;53.024;6.596;2024-03-08T09:38:13;23.38;;;18.35;;
52962;SDS011;38827;53.024;6.596;2024-03-08T09:40:42;22.08;;;17.77;;
52962;SDS011;38827;53.024;6.596;2024-03-08T09:43:11;23.60;;;18.52;;
52962;SDS011;38827;53.024;6.596;2024-03-08T09:45:38;23.07;;;18.50;;
52962;SDS011;38827;53.024;6.596;2024-03-08T09:48:09;24.80;;;18.08;;
52962;SDS011;38827;53.024;6.596;2024-03-08T09:50:42;23.80;;;18.13;;
52962;SDS011;38827;53.024;6.596;2024-03-08T09:53:08;22.45;;;17.58;;
52962;SDS011;38827;53.024;6.596;2024-03-08T09:55:37;23.67;;;18.55;;
52962;SDS011;38827;53.024;6.596;2024-03-08T09:58:06;25.30;;;19.52;;
52962;SDS011;38827;53.024;6.596;2024-03-08T10:01:01;21.83;;;17.53;;
52962;SDS011;38827;53.024;6.596;2024-03-08T10:03:29;22.67;;;17.85;;
52962;SDS011;38827;53.024;6.596;2024-03-08T10:05:57;25.55;;;18.27;;
52962;SDS011;38827;53.024;6.596;2024-03-08T10:08:26;20.88;;;17.80;;
52962;SDS011;38827;53.024;6.596;2024-03-08T10:10:54;21.95;;;18.75;;
52962;SDS011;38827;53.024;6.596;2024-03-08T10:13:23;24.13;;;18.65;;
52962;SDS011;38827;53.024;6.596;2024-03-08T10:15:52;23.40;;;18.88;;
52962;SDS011;38827;53.024;6.596;2024-03-08T10:18:19;22.70;;;18.90;;
52962;SDS011;38827;53.024;6.596;2024-03-08T10:20:46;22.15;;;18.20;;
52962;SDS011;38827;53.024;6.596;2024-03-08T10:23:33;23.58;;;18.50;;
52962;SDS011;38827;53.024;6.596;2024-03-08T10:28:45;22.85;;;18.27;;
52962;SDS011;38827;53.024;6.596;2024-03-08T10:31:15;22.20;;;17.92;;
52962;SDS011;38827;53.024;6.596;2024-03-08T10:33:41;22.63;;;18.45;;
52962;SDS011;38827;53.024;6.596;2024-03-08T10:36:08;24.17;;;18.23;;
52962;SDS011;38827;53.024;6.596;2024-03-08T10:38:37;21.65;;;17.98;;
52962;SDS011;38827;53.024;6.596;2024-03-08T10:41:05;23.80;;;18.40;;
52962;SDS011;38827;53.024;6.596;2024-03-08T10:48:56;21.50;;;18.58;;
52962;SDS011;38827;53.024;6.596;2024-03-08T10:51:28;22.58;;;18.20;;
52962;SDS011;38827;53.024;6.596;2024-03-08T10:53:58;23.20;;;18.42;;
52962;SDS011;38827;53.024;6.596;2024-03-08T10:56:25;22.85;;;19.05;;
52962;SDS011;38827;53.024;6.596;2024-03-08T10:58:53;22.30;;;18.20;;
52962;SDS011;38827;53.024;6.596;2024-03-08T11:01:22;22.98;;;18.58;;
52962;SDS011;38827;53.024;6.596;2024-03-08T11:03:51;24.88;;;19.10;;
52962;SDS011;38827;53.024;6.596;2024-03-08T11:07:00;23.70;;;18.13;;
52962;SDS011;38827;53.024;6.596;2024-03-08T11:09:55;19.73;;;17.00;;
52962;SDS011;38827;53.024;6.596;2024-03-08T11:12:24;22.02;;;18.05;;
52962;SDS011;38827;53.024;6.596;2024-03-08T11:15:24;22.60;;;18.05;;
52962;SDS011;38827;53.024;6.596;2024-03-08T11:17:50;20.50;;;17.80;;
52962;SDS011;38827;53.024;6.596;2024-03-08T11:20:16;24.65;;;18.65;;
52962;SDS011;38827;53.024;6.596;2024-03-08T11:22:55;24.10;;;19.05;;
52962;SDS011;38827;53.024;6.596;2024-03-08T11:25:30;24.13;;;19.05;;
52962;SDS011;38827;53.024;6.596;2024-03-08T11:28:25;22.50;;;18.45;;
52962;SDS011;38827;53.024;6.596;2024-03-08T11:33:47;23.33;;;18.65;;
52962;SDS011;38827;53.024;6.596;2024-03-08T11:36:22;24.40;;;18.88;;
52962;SDS011;38827;53.024;6.596;2024-03-08T11:38:58;20.48;;;17.75;;
52962;SDS011;38827;53.024;6.596;2024-03-08T11:41:30;24.40;;;18.50;;
52962;SDS011;38827;53.024;6.596;2024-03-08T11:44:03;21.13;;;17.90;;
52962;SDS011;38827;53.024;6.596;2024-03-08T11:46:33;22.08;;;18.67;;
52962;SDS011;38827;53.024;6.596;2024-03-08T11:49:02;21.30;;;17.90;;
52962;SDS011;38827;53.024;6.596;2024-03-08T11:51:40;21.17;;;18.35;;
52962;SDS011;38827;53.024;6.596;2024-03-08T11:54:13;22.17;;;18.40;;
52962;SDS011;38827;53.024;6.596;2024-03-08T11:56:51;20.85;;;18.65;;
52962;SDS011;38827;53.024;6.596;2024-03-08T11:59:17;21.92;;;18.65;;
52962;SDS011;38827;53.024;6.596;2024-03-08T12:02:07;21.00;;;18.73;;
52962;SDS011;38827;53.024;6.596;2024-03-08T12:04:36;22.13;;;19.25;;
52962;SDS011;38827;53.024;6.596;2024-03-08T12:07:02;21.57;;;18.80;;
52962;SDS011;38827;53.024;6.596;2024-03-08T12:09:33;20.27;;;18.08;;
52962;SDS011;38827;53.024;6.596;2024-03-08T12:12:17;22.05;;;18.40;;
52962;SDS011;38827;53.024;6.596;2024-03-08T12:14:46;20.95;;;17.98;;
52962;SDS011;38827;53.024;6.596;2024-03-08T12:17:14;23.30;;;17.90;;
52962;SDS011;38827;53.024;6.596;2024-03-08T12:19:52;21.52;;;18.08;;
52962;SDS011;38827;53.024;6.596;2024-03-08T12:22:32;22.05;;;17.85;;
52962;SDS011;38827;53.024;6.596;2024-03-08T12:25:13;20.80;;;18.60;;
52962;SDS011;38827;53.024;6.596;2024-03-08T12:27:39;20.48;;;17.95;;
52962;SDS011;38827;53.024;6.596;2024-03-08T12:30:22;22.33;;;18.75;;
52962;SDS011;38827;53.024;6.596;2024-03-08T12:33:00;19.90;;;17.60;;
52962;SDS011;38827;53.024;6.596;2024-03-08T12:35:33;21.13;;;17.95;;
52962;SDS011;38827;53.024;6.596;2024-03-08T12:37:59;22.23;;;17.63;;
52962;SDS011;38827;53.024;6.596;2024-03-08T12:40:33;19.73;;;17.53;;
52962;SDS011;38827;53.024;6.596;2024-03-08T12:43:10;20.02;;;17.73;;
52962;SDS011;38827;53.024;6.596;2024-03-08T12:45:37;20.75;;;18.50;;
52962;SDS011;38827;53.024;6.596;2024-03-08T12:48:02;21.87;;;17.77;;
52962;SDS011;38827;53.024;6.596;2024-03-08T12:50:39;20.17;;;17.25;;
52962;SDS011;38827;53.024;6.596;2024-03-08T12:53:04;20.37;;;17.27;;
52962;SDS011;38827;53.024;6.596;2024-03-08T12:55:30;19.60;;;16.80;;
52962;SDS011;38827;53.024;6.596;2024-03-08T12:57:57;20.73;;;17.13;;
52962;SDS011;38827;53.024;6.596;2024-03-08T13:00:24;20.75;;;18.20;;
52962;SDS011;38827;53.024;6.596;2024-03-08T13:02:51;20.58;;;17.65;;
52962;SDS011;38827;53.024;6.596;2024-03-08T13:05:17;20.07;;;17.67;;
52962;SDS011;38827;53.024;6.596;2024-03-08T13:10:29;19.55;;;17.45;;
52962;SDS011;38827;53.024;6.596;2024-03-08T13:13:13;20.77;;;17.17;;
52962;SDS011;38827;53.024;6.596;2024-03-08T13:15:41;19.20;;;17.10;;
52962;SDS011;38827;53.024;6.596;2024-03-08T13:18:07;20.10;;;16.93;;
52962;SDS011;38827;53.024;6.596;2024-03-08T13:20:34;21.33;;;16.77;;
52962;SDS011;38827;53.024;6.596;2024-03-08T13:23:03;19.02;;;16.92;;
52962;SDS011;38827;53.024;6.596;2024-03-08T13:25:42;19.90;;;16.98;;
52962;SDS011;38827;53.024;6.596;2024-03-08T13:28:08;19.90;;;16.65;;
52962;SDS011;38827;53.024;6.596;2024-03-08T13:30:34;18.73;;;16.17;;
52962;SDS011;38827;53.024;6.596;2024-03-08T13:33:00;17.73;;;15.57;;
52962;SDS011;38827;53.024;6.596;2024-03-08T13:35:30;18.48;;;16.27;;
52962;SDS011;38827;53.024;6.596;2024-03-08T13:38:16;19.80;;;16.20;;
52962;SDS011;38827;53.024;6.596;2024-03-08T13:40:48;17.60;;;15.63;;
52962;SDS011;38827;53.024;6.596;2024-03-08T13:43:17;19.48;;;16.88;;
52962;SDS011;38827;53.024;6.596;2024-03-08T13:48:39;18.00;;;16.08;;
52962;SDS011;38827;53.024;6.596;2024-03-08T13:51:06;18.35;;;16.05;;
52962;SDS011;38827;53.024;6.596;2024-03-08T13:53:35;18.60;;;16.48;;
52962;SDS011;38827;53.024;6.596;2024-03-08T14:01:38;17.92;;;15.48;;
52962;SDS011;38827;53.024;6.596;2024-03-08T14:04:04;18.70;;;15.57;;
52962;SDS011;38827;53.024;6.596;2024-03-08T14:06:45;18.63;;;14.63;;
52962;SDS011;38827;53.024;6.596;2024-03-08T14:09:19;18.63;;;15.30;;
52962;SDS011;38827;53.024;6.596;2024-03-08T14:11:45;17.02;;;14.98;;
52962;SDS011;38827;53.024;6.596;2024-03-08T14:14:14;16.83;;;14.80;;
52962;SDS011;38827;53.024;6.596;2024-03-08T14:16:52;17.98;;;15.02;;
52962;SDS011;38827;53.024;6.596;2024-03-08T14:19:19;18.00;;;15.60;;
52962;SDS011;38827;53.024;6.596;2024-03-08T14:21:45;16.90;;;14.13;;
52962;SDS011;38827;53.024;6.596;2024-03-08T14:24:13;17.15;;;13.73;;
52962;SDS011;38827;53.024;6.596;2024-03-08T14:26:40;15.98;;;14.25;;
52962;SDS011;38827;53.024;6.596;2024-03-08T14:29:07;18.55;;;14.77;;
52962;SDS011;38827;53.024;6.596;2024-03-08T14:31:35;16.92;;;14.55;;
52962;SDS011;38827;53.024;6.596;2024-03-08T14:34:03;17.92;;;14.57;;
52962;SDS011;38827;53.024;6.596;2024-03-08T14:36:29;18.88;;;14.60;;
52962;SDS011;38827;53.024;6.596;2024-03-08T14:38:55;17.87;;;14.73;;
52962;SDS011;38827;53.024;6.596;2024-03-08T14:43:52;18.13;;;15.38;;
52962;SDS011;38827;53.024;6.596;2024-03-08T14:46:21;16.83;;;14.35;;
52962;SDS011;38827;53.024;6.596;2024-03-08T14:48:49;17.02;;;15.00;;
52962;SDS011;38827;53.024;6.596;2024-03-08T14:51:33;17.13;;;14.48;;
52962;SDS011;38827;53.024;6.596;2024-03-08T14:56:34;17.95;;;14.82;;
52962;SDS011;38827;53.024;6.596;2024-03-08T14:59:00;17.10;;;14.93;;
52962;SDS011;38827;53.024;6.596;2024-03-08T15:01:26;19.13;;;14.23;;
52962;SDS011;38827;53.024;6.596;2024-03-08T15:03:55;18.02;;;15.00;;
52962;SDS011;38827;53.024;6.596;2024-03-08T15:06:21;17.13;;;14.82;;
52962;SDS011;38827;53.024;6.596;2024-03-08T15:08:47;20.90;;;15.13;;
52962;SDS011;38827;53.024;6.596;2024-03-08T15:11:23;21.10;;;15.80;;
52962;SDS011;38827;53.024;6.596;2024-03-08T15:16:51;19.80;;;15.07;;
52962;SDS011;38827;53.024;6.596;2024-03-08T15:19:19;20.45;;;16.25;;
52962;SDS011;38827;53.024;6.596;2024-03-08T15:21:46;19.77;;;16.08;;
52962;SDS011;38827;53.024;6.596;2024-03-08T15:26:40;24.92;;;15.57;;
52962;SDS011;38827;53.024;6.596;2024-03-08T15:29:08;20.48;;;15.70;;
52962;SDS011;38827;53.024;6.596;2024-03-08T15:31:34;20.23;;;15.90;;
52962;SDS011;38827;53.024;6.596;2024-03-08T15:34:03;21.25;;;16.85;;
52962;SDS011;38827;53.024;6.596;2024-03-08T15:36:32;21.40;;;17.17;;
52962;SDS011;38827;53.024;6.596;2024-03-08T15:38:58;21.63;;;16.42;;
52962;SDS011;38827;53.024;6.596;2024-03-08T15:43:54;23.73;;;16.83;;
52962;SDS011;38827;53.024;6.596;2024-03-08T15:46:21;23.38;;;17.48;;
52962;SDS011;38827;53.024;6.596;2024-03-08T15:48:50;23.30;;;17.92;;
52962;SDS011;38827;53.024;6.596;2024-03-08T15:51:16;20.77;;;17.25;;
52962;SDS011;38827;53.024;6.596;2024-03-08T15:53:45;22.45;;;16.75;;
52962;SDS011;38827;53.024;6.596;2024-03-08T15:56:18;22.70;;;16.35;;
52962;SDS011;38827;53.024;6.596;2024-03-08T15:58:45;22.15;;;17.10;;
52962;SDS011;38827;53.024;6.596;2024-03-08T16:01:10;23.67;;;17.42;;
52962;SDS011;38827;53.024;6.596;2024-03-08T16:03:41;24.33;;;17.85;;
52962;SDS011;38827;53.024;6.596;2024-03-08T16:06:07;22.98;;;17.67;;
52962;SDS011;38827;53.024;6.596;2024-03-08T16:08:33;25.05;;;17.92;;
52962;SDS011;38827;53.024;6.596;2024-03-08T16:11:25;24.38;;;17.73;;
52962;SDS011;38827;53.024;6.596;2024-03-08T16:13:52;23.88;;;17.85;;
52962;SDS011;38827;53.024;6.596;2024-03-08T16:16:17;25.30;;;18.02;;
52962;SDS011;38827;53.024;6.596;2024-03-08T16:18:43;25.50;;;18.58;;
52962;SDS011;38827;53.024;6.596;2024-03-08T16:21:09;26.50;;;18.67;;
52962;SDS011;38827;53.024;6.596;2024-03-08T16:23:34;25.02;;;18.83;;
52962;SDS011;38827;53.024;6.596;2024-03-08T16:26:01;26.83;;;18.20;;
52962;SDS011;38827;53.024;6.596;2024-03-08T16:28:32;28.92;;;20.70;;
52962;SDS011;38827;53.024;6.596;2024-03-08T16:31:03;25.65;;;18.27;;